If you wish to contribute or participate in the discussions about articles you are invited to join SKYbrary as a registered user

 Actions

Odate-Noshiro Airport

From SKYbrary Wiki

RJSR
Airport
ICAO: RJSR – IATA: ONJ
Summary
Name Odate-Noshiro Airport
Region Asia and Pacific
Territory Japan JP.gif
Location Kitaakita, Akita Prefecture
Serving Akita
Elevation 84.125 m
276 ft84.125 m
Coordinates 40° 11' 41.90" N, 140° 22' 22.00" E
Runways
Designator Length Width Surface ROPS
11/29 2000 m6,561.68 ft
45 m147.638 ft
ASP yes/yes


METAR
Observation RJSR 111000Z 27007KT 9999 FEW035 05/M00 Q1011
Station Odate-Noshiro Airport
Date/Time 11 April 2019 10:00:00
Wind direction 270°
Wind speed 07 kts
Lowest cloud amount few clouds
Temperature 5°C
Dew point
Humidity 70%
QNH 1011 hPa
Weather condition n/a

Odate–Noshiro Airport is an airport in Kitaakita, Akita, Japan and is 8.3 nm15,371.6 m
15.372 km
50,431.759 ft
. It is also informally known as Akita North Airport.

Climatology

Humid Sub-tropical climate (Köppen climate classification Cfa)

Maps

Terrain

Loading map...

Airport Layout

Loading map...


Accidents & Serious Incidents at or in vicinity of RJSR

None on SKYbrary